METAR Data
IDs: Format: Raw Decoded Include TAF

Data at: 0926 UTC 18 Jan 2019

PADM 180902Z AUTO 33012KT 4SM -SN BR FEW014 OVC020 M06/M07 A2996 RMK AO2 SNB0852 SLP156 P0000 60000 T10611072 51018 FZRANO
PADM 180820Z AUTO 34011KT 9SM SCT010 OVC018 M06/M07 A2996 RMK AO2 FZRANO
PADM 180802Z AUTO 33008KT 10SM OVC010 M06/M07 A2996 RMK AO2 CIG 009V012 SLP154 T10611072 410611061 FZRANO
PADM 180702Z AUTO 36010KT 10SM OVC012 M06/M08 A2995 RMK AO2 SLP149 T10561078 FZRANO
PADM 180602Z AUTO 35012KT 10SM OVC012 M06/M08 A2993 RMK AO2 SLP143 T10561078 11056 21072 51010 FZRANO
PADM 180502Z AUTO 34012KT 10SM OVC012 M06/M08 A2991 RMK AO2 SLP137 T10561078 FZRANO
PADM 180440Z AUTO 00000KT 10SM OVC014 M06/M09 A2991 RMK AO2 FZRANO
PADM 180402Z AUTO 14004KT 10SM OVC016 M07/M09 A2991 RMK AO2 SLP136 T10671094 FZRANO
PADM 180302Z AUTO 06004KT 10SM OVC018 M07/M09 A2990 RMK AO2 SLP133 T10721089 51006 FZRANO
PADM 180215Z AUTO 31008KT 10SM BKN018 BKN023 OVC047 M07/M09 A2988 RMK AO2 FZRANO
PADM 180202Z AUTO 32007KT 10SM FEW018 SCT023 OVC047 M07/M09 A2987 RMK AO2 FZRANO
PADM 180157Z AUTO 32007KT 10SM FEW017 BKN023 OVC047 M07/M09 A2987 RMK AO2 FZRANO
PADM 180132Z AUTO 00000KT 10SM SCT020 SCT025 OVC047 M07/M09 A2986 RMK AO2 FZRANO
PADM 180102Z AUTO 31003KT 10SM OVC023 M07/M09 A2986 RMK AO2 SLP120 T10671089 FZRANO
PADM 180011Z AUTO 00000KT 10SM FEW017 BKN023 OVC055 M07/M09 A2985 RMK AO2 FZRANO
PADM 180002Z AUTO 00000KT 10SM FEW017 BKN046 OVC055 M07/M09 A2985 RMK AO2 SLP117 T10721094 11072 21089 51012 FZRANO
PADM 172302Z AUTO 00000KT 10SM BKN046 OVC050 M08/M10 A2984 RMK AO2 SLP113 T10781100 FZRANO
PADM 172202Z AUTO 00000KT 10SM BKN050 M09/M11 A2983 RMK AO2 SLP109 T10891106 FZRANO
PADM 172102Z AUTO 00000KT 10SM FEW041 M08/M10 A2982 RMK AO2 SLP107 T10831100 53021 FZRANO
PADM 172002Z AUTO 00000KT 10SM OVC037 M08/M10 A2980 RMK AO2 SLP101 T10831100 FZRANO
PADM 171902Z AUTO 21004KT 10SM SCT060 M08/M10 A2979 RMK AO2 SLP095 T10831100 FZRANO
PADM 171802Z AUTO 21003KT 10SM OVC060 M08/M10 A2976 RMK AO2 SLP085 T10831100 11044 21083 51015 FZRANO
PADM 171702Z AUTO 20003KT 10SM OVC055 M08/M09 A2974 RMK AO2 SLP080 T10781094 FZRANO
PADM 171602Z AUTO 19006KT 10SM OVC060 M08/M09 A2973 RMK AO2 SLP075 T10781094 FZRANO
PADM 171502Z AUTO 14003KT 10SM SCT060 M08/M09 A2971 RMK AO2 SLP070 T10781094 51015 FZRANO
PADM 171402Z AUTO 08017KT 10SM BKN065 M05/M08 A2970 RMK AO2 SLP065 T10501078 FZRANO
PADM 171302Z AUTO 09012G18KT 10SM FEW075 M04/M08 A2969 RMK AO2 SLP062 T10441078 FZRANO
PADM 171202Z AUTO 07019KT 10SM FEW070 M04/M08 A2966 RMK AO2 PK WND 07026/1122 SLP053 T10441083 11044 21072 53001 FZRANO
PADM 171102Z AUTO 06019KT 10SM OVC070 M04/M08 A2965 RMK AO2 SLP049 T10441078 FZRANO
PADM 171002Z AUTO 07018G22KT 10SM BKN055 M05/M08 A2965 RMK AO2 PK WND 06026/0926 SLP048 T10501078 FZRANO
PADM 170902Z AUTO 05013G21KT 10SM OVC050 M05/M09 A2965 RMK AO2 SLP048 60000 T10501089 53008 FZRANO
PADM 170802Z AUTO 05010KT 10SM OVC060 M06/M09 A2965 RMK AO2 SLP049 T10561089 410561056 FZRANO
PADM 170702Z AUTO 07021KT 10SM OVC060 M06/M09 A2962 RMK AO2 SLP040 T10611089 FZRANO
PADM 170602Z AUTO 08009KT 10SM BKN049 OVC075 M07/M09 A2962 RMK AO2 SNE0549 SLP039 P0000 60000 T10721094 11072 21089 50004 FZRANO
PADM 170502Z AUTO 07012KT 9SM -SN BKN035 OVC055 M07/M10 A2963 RMK AO2 SNB0418 SLP041 P0000 T10721100 FZRANO
PADM 170402Z AUTO 07010KT 10SM FEW035 OVC048 M07/M12 A2963 RMK AO2 SLP043 T10721117 FZRANO
PADM 170302Z AUTO 08018KT 10SM SCT075 M09/M13 A2962 RMK AO2 SLP039 T10891128 55001 FZRANO
PADM 170202Z AUTO 07016KT 10SM CLR M08/M12 A2961 RMK AO2 SLP037 T10831122 FZRANO
PADM 170102Z AUTO 06014KT 10SM FEW065 OVC080 M08/M12 A2961 RMK AO2 SLP035 T10831117 FZRANO
PADM 170002Z AUTO 06012G20KT 10SM OVC080 M08/M13 A2962 RMK AO2 SLP038 T10831128 11083 21117 58008 FZRANO
PADM 162302Z AUTO 05010KT 10SM CLR M09/M13 A2962 RMK AO2 SLP038 T10891128 FZRANO
PADM 162202Z AUTO 05016KT 10SM CLR M10/M13 A2963 RMK AO2 SLP041 T11001133 FZRANO